Time;durP1;ratioP1;P1;durP2;ratioP2;P2;SDS_P1;SDS_P2;PMS_P1;PMS_P2;Temp;Humidity;BMP_temperature;BMP_pressure;BME280_temperature;BME280_humidity;BME280_pressure;Samples;Min_cycle;Max_cycle;Signal;HPM_P1;HPM_P2
2023/03/01 00:02:19;;;;;;;2.00;1.80;;;;;;;;;;4965450;28;20227;-89
2023/03/01 00:04:47;;;;;;;1.97;1.67;;;;;;;;;;4943077;28;20237;-86
2023/03/01 00:07:15;;;;;;;2.47;1.43;;;;;;;;;;4943300;28;20313;-88
2023/03/01 00:09:45;;;;;;;2.30;2.10;;;;;;;;;;4948758;28;20217;-87
2023/03/01 00:12:11;;;;;;;1.77;1.50;;;;;;;;;;4973561;28;20221;-85
2023/03/01 00:14:36;;;;;;;2.00;1.80;;;;;;;;;;4944396;28;20218;-87
2023/03/01 00:20:53;;;;;;;1.83;1.70;;;;;;;;;;4979551;28;20703;-87
2023/03/01 00:23:21;;;;;;;3.37;1.93;;;;;;;;;;4960755;28;20649;-86
2023/03/01 00:25:51;;;;;;;1.70;1.60;;;;;;;;;;4956077;28;20229;-87
2023/03/01 00:28:19;;;;;;;1.83;1.73;;;;;;;;;;4949467;28;20230;-87
2023/03/01 00:30:45;;;;;;;2.03;1.83;;;;;;;;;;4944483;28;20580;-87
2023/03/01 00:33:10;;;;;;;2.40;1.63;;;;;;;;;;4959851;28;20621;-85
2023/03/01 00:35:36;;;;;;;1.63;1.40;;;;;;;;;;4956236;28;20235;-85
2023/03/01 00:38:02;;;;;;;1.90;1.63;;;;;;;;;;4948421;28;20289;-88
2023/03/01 00:40:28;;;;;;;1.80;1.60;;;;;;;;;;4971807;28;20229;-85
2023/03/01 00:42:56;;;;;;;1.73;1.57;;;;;;;;;;4943841;28;20221;-86
2023/03/01 00:45:21;;;;;;;2.13;1.90;;;;;;;;;;4947050;28;20460;-86
2023/03/01 00:47:49;;;;;;;2.13;1.57;;;;;;;;;;4947542;28;20214;-86
2023/03/01 00:50:15;;;;;;;2.87;2.17;;;;;;;;;;4943234;28;20225;-87
2023/03/01 00:52:43;;;;;;;2.67;1.93;;;;;;;;;;4946815;28;20308;-87
2023/03/01 00:55:09;;;;;;;2.97;2.00;;;;;;;;;;4940613;28;20647;-89
2023/03/01 00:57:34;;;;;;;2.10;1.90;;;;;;;;;;4948633;28;20305;-87
2023/03/01 01:00:00;;;;;;;3.27;2.17;;;;;;;;;;4958700;28;20687;-86
2023/03/01 01:02:25;;;;;;;1.77;1.67;;;;;;;;;;4956734;28;20226;-87
2023/03/01 01:04:51;;;;;;;2.10;1.87;;;;;;;;;;4945189;28;20310;-87
2023/03/01 01:07:22;;;;;;;3.03;1.90;;;;;;;;;;4961740;28;20229;-86
2023/03/01 01:09:47;;;;;;;1.90;1.80;;;;;;;;;;4946383;28;20233;-87
2023/03/01 01:12:13;;;;;;;2.07;1.83;;;;;;;;;;4966305;28;21211;-85
2023/03/01 01:14:44;;;;;;;2.23;2.03;;;;;;;;;;4951102;28;20222;-88
2023/03/01 01:17:15;;;;;;;2.30;2.10;;;;;;;;;;4950674;28;20227;-88
2023/03/01 01:19:40;;;;;;;2.50;2.00;;;;;;;;;;4950791;28;20221;-87
2023/03/01 01:22:06;;;;;;;3.17;2.23;;;;;;;;;;4957922;28;20260;-86
2023/03/01 01:24:36;;;;;;;2.03;1.83;;;;;;;;;;4947870;28;20233;-85
2023/03/01 01:27:02;;;;;;;1.83;1.73;;;;;;;;;;4951437;28;20229;-84
2023/03/01 01:29:27;;;;;;;1.77;1.67;;;;;;;;;;4980869;28;20332;-84
2023/03/01 01:31:53;;;;;;;2.03;1.80;;;;;;;;;;4954000;28;20233;-85
2023/03/01 01:34:20;;;;;;;2.10;1.90;;;;;;;;;;4946374;28;20225;-86
2023/03/01 01:36:49;;;;;;;2.27;1.90;;;;;;;;;;4951594;28;20218;-88
2023/03/01 01:39:18;;;;;;;2.47;2.10;;;;;;;;;;4946740;28;20222;-89
2023/03/01 01:41:46;;;;;;;1.77;1.67;;;;;;;;;;4948146;28;20221;-87
2023/03/01 01:44:14;;;;;;;3.03;1.93;;;;;;;;;;4950811;28;20715;-87
2023/03/01 01:46:42;;;;;;;4.30;2.10;;;;;;;;;;4948160;28;20218;-87
2023/03/01 01:49:22;;;;;;;3.80;2.17;;;;;;;;;;4944186;28;20281;-85
2023/03/01 01:51:48;;;;;;;2.20;1.90;;;;;;;;;;4944256;28;20224;-87
2023/03/01 01:54:16;;;;;;;2.00;1.70;;;;;;;;;;4941336;28;20227;-87
2023/03/01 01:56:44;;;;;;;2.00;1.77;;;;;;;;;;4951542;28;20226;-84
2023/03/01 01:59:12;;;;;;;2.53;2.00;;;;;;;;;;4967150;28;20218;-84
2023/03/01 02:01:37;;;;;;;3.03;2.13;;;;;;;;;;4950250;28;20217;-85
2023/03/01 02:04:04;;;;;;;4.43;1.80;;;;;;;;;;4945936;28;20768;-85
2023/03/01 02:06:38;;;;;;;1.60;1.50;;;;;;;;;;4947368;28;20272;-86
2023/03/01 02:09:06;;;;;;;1.67;1.57;;;;;;;;;;4950601;28;20215;-86
2023/03/01 02:11:33;;;;;;;1.67;1.57;;;;;;;;;;4948480;28;21027;-85
2023/03/01 02:14:01;;;;;;;1.83;1.60;;;;;;;;;;4979074;28;20333;-85
2023/03/01 02:16:27;;;;;;;2.83;1.70;;;;;;;;;;4943425;28;20756;-86
2023/03/01 02:18:54;;;;;;;2.00;1.87;;;;;;;;;;4950594;28;20234;-87
2023/03/01 02:21:22;;;;;;;1.80;1.70;;;;;;;;;;4951799;28;20232;-85
2023/03/01 02:23:48;;;;;;;2.60;2.03;;;;;;;;;;4967644;28;20375;-86
2023/03/01 02:26:21;;;;;;;3.50;2.10;;;;;;;;;;4948569;28;20279;-85
2023/03/01 02:28:47;;;;;;;1.93;1.67;;;;;;;;;;4949783;28;20244;-86
2023/03/01 02:34:05;;;;;;;4.70;1.90;;;;;;;;;;4985187;28;20216;-86
2023/03/01 02:36:53;;;;;;;2.77;2.07;;;;;;;;;;4966547;28;20230;-86
2023/03/01 02:39:21;;;;;;;2.27;1.80;;;;;;;;;;4983912;28;20230;-86
2023/03/01 02:41:51;;;;;;;3.00;2.10;;;;;;;;;;4950721;28;20262;-86
2023/03/01 02:44:20;;;;;;;2.23;1.80;;;;;;;;;;4949365;28;20233;-86
2023/03/01 02:46:53;;;;;;;2.67;1.80;;;;;;;;;;4950012;28;20226;-88
2023/03/01 02:49:20;;;;;;;1.90;1.73;;;;;;;;;;4954455;28;20315;-87
2023/03/01 02:52:04;;;;;;;3.90;2.03;;;;;;;;;;4954786;28;20238;-88
2023/03/01 02:54:38;;;;;;;2.43;2.00;;;;;;;;;;4981684;28;20232;-87
2023/03/01 02:57:04;;;;;;;2.67;1.90;;;;;;;;;;4961062;28;20222;-88
2023/03/01 02:59:38;;;;;;;2.27;1.70;;;;;;;;;;4946799;28;20222;-88
2023/03/01 03:02:20;;;;;;;2.17;1.90;;;;;;;;;;4950437;28;20212;-89
2023/03/01 03:04:46;;;;;;;2.30;2.00;;;;;;;;;;4951376;28;20274;-88
2023/03/01 03:07:12;;;;;;;2.20;2.00;;;;;;;;;;4939824;28;20221;-85
2023/03/01 03:09:38;;;;;;;2.10;1.90;;;;;;;;;;4945006;28;20222;-85
2023/03/01 03:12:06;;;;;;;2.27;1.90;;;;;;;;;;4946867;28;20288;-88
2023/03/01 03:14:34;;;;;;;2.20;2.00;;;;;;;;;;4947909;28;20221;-86
2023/03/01 03:17:00;;;;;;;1.93;1.83;;;;;;;;;;4952389;28;20230;-86
2023/03/01 03:19:26;;;;;;;1.70;1.60;;;;;;;;;;4946861;28;20209;-86
2023/03/01 03:21:51;;;;;;;2.03;1.80;;;;;;;;;;4939195;28;20635;-87
2023/03/01 03:24:18;;;;;;;2.23;1.87;;;;;;;;;;4980747;28;20230;-88
2023/03/01 03:26:43;;;;;;;4.00;2.17;;;;;;;;;;4950525;28;20220;-86
2023/03/01 03:29:09;;;;;;;2.20;2.00;;;;;;;;;;4953070;28;20225;-86
2023/03/01 03:31:34;;;;;;;4.13;2.70;;;;;;;;;;4963043;28;20229;-85
2023/03/01 03:34:00;;;;;;;3.23;2.03;;;;;;;;;;4990921;28;20293;-82
2023/03/01 03:36:25;;;;;;;2.47;1.70;;;;;;;;;;4948974;28;20587;-87
2023/03/01 03:38:51;;;;;;;2.80;2.23;;;;;;;;;;4961250;28;20230;-88
2023/03/01 03:41:25;;;;;;;3.40;1.87;;;;;;;;;;4946682;28;20535;-87
2023/03/01 03:43:50;;;;;;;1.90;1.70;;;;;;;;;;4950998;28;20245;-87
2023/03/01 03:46:18;;;;;;;1.67;1.57;;;;;;;;;;4966413;28;20675;-87
2023/03/01 03:48:46;;;;;;;1.80;1.70;;;;;;;;;;4948998;28;20214;-88
2023/03/01 03:51:13;;;;;;;1.63;1.53;;;;;;;;;;4951141;28;20776;-86
2023/03/01 03:53:39;;;;;;;2.57;1.90;;;;;;;;;;4951332;28;20276;-87
2023/03/01 03:56:09;;;;;;;1.73;1.63;;;;;;;;;;4971317;28;20221;-88
2023/03/01 03:58:35;;;;;;;1.70;1.60;;;;;;;;;;4945989;28;20317;-85
2023/03/01 04:01:00;;;;;;;1.77;1.57;;;;;;;;;;4964731;28;20722;-86
2023/03/01 04:03:32;;;;;;;2.23;1.87;;;;;;;;;;4965834;28;20230;-86
2023/03/01 04:06:03;;;;;;;1.77;1.50;;;;;;;;;;4943108;28;20213;-84
2023/03/01 04:08:31;;;;;;;3.23;1.43;;;;;;;;;;4965059;28;20230;-86
2023/03/01 04:11:25;;;;;;;1.77;1.43;;;;;;;;;;4938984;28;20225;-86
2023/03/01 04:13:44;;;;;;;1.60;1.50;;;;;;;;;;4958797;28;20268;-87
2023/03/01 04:16:10;;;;;;;1.70;1.60;;;;;;;;;;4929527;28;20238;-88
2023/03/01 04:18:35;;;;;;;4.03;2.93;;;;;;;;;;4940623;28;20229;-88
2023/03/01 04:21:01;;;;;;;2.27;1.73;;;;;;;;;;4960659;28;21176;-86
2023/03/01 04:23:29;;;;;;;2.27;1.40;;;;;;;;;;4950826;28;20226;-87
2023/03/01 04:25:58;;;;;;;2.07;1.73;;;;;;;;;;4965989;28;20233;-88
2023/03/01 04:28:24;;;;;;;2.03;1.70;;;;;;;;;;4948521;28;20222;-86
2023/03/01 04:30:56;;;;;;;1.87;1.70;;;;;;;;;;4978096;28;20226;-87
2023/03/01 04:33:21;;;;;;;1.80;1.60;;;;;;;;;;4949679;28;20253;-87
2023/03/01 04:35:49;;;;;;;2.40;2.20;;;;;;;;;;4951538;28;20233;-87
2023/03/01 04:38:16;;;;;;;1.93;1.70;;;;;;;;;;4935209;28;20241;-85
2023/03/01 04:40:42;;;;;;;3.27;2.20;;;;;;;;;;4963255;28;20616;-87
2023/03/01 04:43:17;;;;;;;3.30;2.00;;;;;;;;;;4932131;28;20221;-90
2023/03/01 04:45:43;;;;;;;2.37;1.83;;;;;;;;;;4942888;28;20213;-86
2023/03/01 04:48:11;;;;;;;3.30;1.73;;;;;;;;;;4956010;28;20526;-79
2023/03/01 04:50:39;;;;;;;1.63;1.50;;;;;;;;;;4977514;28;20218;-78
2023/03/01 04:53:04;;;;;;;2.30;1.87;;;;;;;;;;4977254;28;20226;-80
2023/03/01 04:55:30;;;;;;;2.57;2.17;;;;;;;;;;4940922;28;20232;-80
2023/03/01 04:57:58;;;;;;;2.67;2.23;;;;;;;;;;4926680;28;20242;-80
2023/03/01 05:00:23;;;;;;;2.90;2.10;;;;;;;;;;4955712;28;20249;-79
2023/03/01 05:02:57;;;;;;;2.13;1.90;;;;;;;;;;4958258;28;20815;-80
2023/03/01 05:05:29;;;;;;;2.17;1.97;;;;;;;;;;4954112;28;20407;-81
2023/03/01 05:07:59;;;;;;;2.13;1.83;;;;;;;;;;4943690;28;20488;-81
2023/03/01 05:10:26;;;;;;;4.37;2.40;;;;;;;;;;4971817;28;20302;-81
2023/03/01 05:12:54;;;;;;;1.87;1.77;;;;;;;;;;4970988;28;20225;-81
2023/03/01 05:15:21;;;;;;;1.80;1.70;;;;;;;;;;4970941;28;20222;-79
2023/03/01 05:17:48;;;;;;;4.20;1.90;;;;;;;;;;4940570;28;20233;-81
2023/03/01 05:20:16;;;;;;;2.20;2.00;;;;;;;;;;4955783;28;20218;-81
2023/03/01 05:22:42;;;;;;;2.83;1.83;;;;;;;;;;4971481;28;20226;-81
2023/03/01 05:25:08;;;;;;;2.27;1.80;;;;;;;;;;4938642;28;20214;-81
2023/03/01 05:27:35;;;;;;;3.53;1.77;;;;;;;;;;4941199;28;20330;-82
2023/03/01 05:30:13;;;;;;;2.00;1.80;;;;;;;;;;4928337;28;20600;-81
2023/03/01 05:32:48;;;;;;;2.23;2.03;;;;;;;;;;4958863;28;20698;-81
2023/03/01 05:35:15;;;;;;;2.20;2.00;;;;;;;;;;4972696;28;20230;-80
2023/03/01 05:37:47;;;;;;;8.97;3.07;;;;;;;;;;4924106;28;20218;-81
2023/03/01 05:40:17;;;;;;;2.30;2.10;;;;;;;;;;4930352;28;20222;-80
2023/03/01 05:42:54;;;;;;;2.70;2.00;;;;;;;;;;4958446;28;20316;-80
2023/03/01 05:45:19;;;;;;;2.03;1.83;;;;;;;;;;4957415;28;20218;-79
2023/03/01 05:47:46;;;;;;;1.90;1.73;;;;;;;;;;4940755;28;20279;-81
2023/03/01 05:50:13;;;;;;;1.80;1.60;;;;;;;;;;4924123;28;20241;-80
2023/03/01 05:52:39;;;;;;;1.73;1.63;;;;;;;;;;4956141;28;20237;-80
2023/03/01 05:55:05;;;;;;;1.63;1.50;;;;;;;;;;4938342;28;20728;-81
2023/03/01 05:57:30;;;;;;;2.00;1.80;;;;;;;;;;4931360;28;20256;-79
2023/03/01 05:59:56;;;;;;;10.13;6.10;;;;;;;;;;4956876;28;20217;-81
2023/03/01 06:02:21;;;;;;;12.87;7.90;;;;;;;;;;4946810;28;20218;-80
2023/03/01 06:04:49;;;;;;;10.30;7.10;;;;;;;;;;4944705;28;20875;-81
2023/03/01 06:07:17;;;;;;;16.53;7.50;;;;;;;;;;4973087;28;20313;-81
2023/03/01 06:09:45;;;;;;;11.90;7.33;;;;;;;;;;4942335;28;20218;-80
2023/03/01 06:12:11;;;;;;;13.50;8.60;;;;;;;;;;4956607;28;20226;-81
2023/03/01 06:14:37;;;;;;;14.23;8.67;;;;;;;;;;4972850;28;20315;-81
2023/03/01 06:17:03;;;;;;;17.57;11.37;;;;;;;;;;4953418;28;20272;-81
2023/03/01 06:19:31;;;;;;;13.37;5.90;;;;;;;;;;4956217;28;20660;-81
2023/03/01 06:21:58;;;;;;;7.17;5.20;;;;;;;;;;4941513;28;20228;-80
2023/03/01 06:24:24;;;;;;;6.23;4.03;;;;;;;;;;4955482;28;20237;-81
2023/03/01 06:26:53;;;;;;;3.47;2.80;;;;;;;;;;4956023;28;20213;-82
2023/03/01 06:29:18;;;;;;;2.80;2.50;;;;;;;;;;4947595;28;20222;-81
2023/03/01 06:31:45;;;;;;;2.40;2.03;;;;;;;;;;4955946;28;20280;-81
2023/03/01 06:34:13;;;;;;;3.67;2.30;;;;;;;;;;4958868;28;20597;-82
2023/03/01 06:36:39;;;;;;;2.73;2.23;;;;;;;;;;4957518;28;20233;-82
2023/03/01 06:39:05;;;;;;;2.37;2.00;;;;;;;;;;4972269;28;20292;-82
2023/03/01 06:41:31;;;;;;;5.30;4.00;;;;;;;;;;4941471;28;20652;-79
2023/03/01 06:43:56;;;;;;;2.67;2.13;;;;;;;;;;4939974;28;20238;-82
2023/03/01 06:46:22;;;;;;;2.33;1.73;;;;;;;;;;4955124;28;20236;-81
2023/03/01 06:48:47;;;;;;;1.80;1.70;;;;;;;;;;4947499;28;20738;-79
2023/03/01 06:51:18;;;;;;;2.27;1.77;;;;;;;;;;4973448;28;20235;-82
2023/03/01 06:53:45;;;;;;;2.67;1.90;;;;;;;;;;4962602;28;20292;-80
2023/03/01 06:56:11;;;;;;;2.73;1.87;;;;;;;;;;4937623;28;20301;-80
2023/03/01 06:58:36;;;;;;;2.63;2.20;;;;;;;;;;4925098;28;20248;-81
2023/03/01 07:01:08;;;;;;;1.97;1.73;;;;;;;;;;4957353;28;20230;-81
2023/03/01 07:03:34;;;;;;;2.53;1.87;;;;;;;;;;4956813;28;20901;-81
2023/03/01 07:06:02;;;;;;;2.10;1.90;;;;;;;;;;4947158;28;20250;-79
2023/03/01 07:08:27;;;;;;;2.30;2.10;;;;;;;;;;4978275;28;20225;-80
2023/03/01 07:11:01;;;;;;;3.13;2.60;;;;;;;;;;4961175;28;20233;-79
2023/03/01 07:13:27;;;;;;;2.90;2.70;;;;;;;;;;4977331;28;20290;-79
2023/03/01 07:15:55;;;;;;;3.63;2.90;;;;;;;;;;4952781;28;20920;-79
2023/03/01 07:18:21;;;;;;;5.30;3.37;;;;;;;;;;4950658;28;20233;-79
2023/03/01 07:20:46;;;;;;;2.87;2.67;;;;;;;;;;4959108;28;20245;-79
2023/03/01 07:23:15;;;;;;;3.07;2.77;;;;;;;;;;4960036;28;20226;-80
2023/03/01 07:25:40;;;;;;;3.50;2.43;;;;;;;;;;4955721;28;20245;-79
2023/03/01 07:28:06;;;;;;;2.70;2.50;;;;;;;;;;4960105;28;20253;-79
2023/03/01 07:30:34;;;;;;;2.90;2.57;;;;;;;;;;4928420;28;20236;-81
2023/03/01 07:33:01;;;;;;;2.80;2.50;;;;;;;;;;4971932;28;20233;-81
2023/03/01 07:35:27;;;;;;;3.73;3.00;;;;;;;;;;4954775;28;20309;-81
2023/03/01 07:37:55;;;;;;;8.00;7.20;;;;;;;;;;4940289;28;20319;-82
2023/03/01 07:40:21;;;;;;;34.20;24.50;;;;;;;;;;4935357;28;20222;-81
2023/03/01 07:42:46;;;;;;;45.17;29.27;;;;;;;;;;4957414;28;20218;-81
2023/03/01 07:45:13;;;;;;;24.83;18.27;;;;;;;;;;4943900;28;20237;-82
2023/03/01 07:47:40;;;;;;;14.17;11.07;;;;;;;;;;4942338;28;20245;-80
2023/03/01 07:50:07;;;;;;;13.00;8.30;;;;;;;;;;4953208;28;20273;-81
2023/03/01 07:52:34;;;;;;;4.33;3.53;;;;;;;;;;4918762;28;20226;-80
2023/03/01 07:55:00;;;;;;;2.97;2.40;;;;;;;;;;4937066;28;20223;-80
2023/03/01 07:57:25;;;;;;;3.33;3.00;;;;;;;;;;4953508;28;20577;-80
2023/03/01 07:59:53;;;;;;;3.10;2.80;;;;;;;;;;4922208;28;20326;-81
2023/03/01 08:02:19;;;;;;;2.80;2.50;;;;;;;;;;4952296;28;20226;-80
2023/03/01 08:04:44;;;;;;;3.33;2.90;;;;;;;;;;4952979;28;20230;-80
2023/03/01 08:07:13;;;;;;;3.13;2.90;;;;;;;;;;4955736;28;20317;-80
2023/03/01 08:09:41;;;;;;;3.60;3.30;;;;;;;;;;4955940;28;20233;-80
2023/03/01 08:12:09;;;;;;;3.33;3.03;;;;;;;;;;4922334;28;20218;-80
2023/03/01 08:14:39;;;;;;;3.27;3.07;;;;;;;;;;4944598;28;20298;-80
2023/03/01 08:17:06;;;;;;;5.03;3.40;;;;;;;;;;4952648;28;20741;-81
2023/03/01 08:19:33;;;;;;;3.40;3.10;;;;;;;;;;4927039;28;20233;-80
2023/03/01 08:22:01;;;;;;;3.70;3.23;;;;;;;;;;4955445;28;20592;-80
2023/03/01 08:24:27;;;;;;;3.30;3.00;;;;;;;;;;4949308;28;20230;-80
2023/03/01 08:26:52;;;;;;;3.60;3.30;;;;;;;;;;4960683;28;20233;-80
2023/03/01 08:29:18;;;;;;;4.10;3.53;;;;;;;;;;4966456;28;20234;-80
2023/03/01 08:31:44;;;;;;;3.63;3.33;;;;;;;;;;4943072;28;20217;-80
2023/03/01 08:34:13;;;;;;;4.80;3.33;;;;;;;;;;4922859;28;20230;-80
2023/03/01 08:36:43;;;;;;;3.47;2.63;;;;;;;;;;4952662;28;20253;-80
2023/03/01 08:39:09;;;;;;;3.27;2.73;;;;;;;;;;4952042;28;20218;-81
2023/03/01 08:41:35;;;;;;;3.20;2.93;;;;;;;;;;4921995;28;20226;-80
2023/03/01 08:44:06;;;;;;;3.57;3.27;;;;;;;;;;4918226;28;20237;-81
2023/03/01 08:46:36;;;;;;;4.53;3.57;;;;;;;;;;4952856;28;20261;-79
2023/03/01 08:49:14;;;;;;;3.83;3.53;;;;;;;;;;4968023;28;20234;-78
2023/03/01 08:51:40;;;;;;;3.90;3.50;;;;;;;;;;4965834;28;20218;-79
2023/03/01 08:54:09;;;;;;;4.17;3.87;;;;;;;;;;4956148;28;20230;-79
2023/03/01 08:56:40;;;;;;;4.23;3.80;;;;;;;;;;4954583;28;20222;-79
2023/03/01 08:59:05;;;;;;;4.23;3.87;;;;;;;;;;4942195;28;20233;-81
2023/03/01 09:01:33;;;;;;;4.07;3.63;;;;;;;;;;4955990;28;20222;-80
2023/03/01 09:04:01;;;;;;;5.83;3.90;;;;;;;;;;4935465;28;20280;-80
2023/03/01 09:06:26;;;;;;;5.70;3.70;;;;;;;;;;4939394;28;20230;-81
2023/03/01 09:08:52;;;;;;;4.07;3.30;;;;;;;;;;4960108;28;20237;-80
2023/03/01 09:11:20;;;;;;;3.30;3.00;;;;;;;;;;4971469;28;20220;-80
2023/03/01 09:13:47;;;;;;;3.13;2.87;;;;;;;;;;4954807;28;20233;-81
2023/03/01 09:16:14;;;;;;;3.17;2.70;;;;;;;;;;4937558;28;20229;-80
2023/03/01 09:18:41;;;;;;;5.03;3.07;;;;;;;;;;4969598;28;20307;-80
2023/03/01 09:21:11;;;;;;;2.40;2.20;;;;;;;;;;4942007;28;20218;-79
2023/03/01 09:23:39;;;;;;;2.43;2.20;;;;;;;;;;4938261;28;20828;-79
2023/03/01 09:26:09;;;;;;;2.83;2.20;;;;;;;;;;4950975;28;20214;-80
2023/03/01 09:28:35;;;;;;;3.03;2.40;;;;;;;;;;4921444;28;20240;-78
2023/03/01 09:31:01;;;;;;;2.20;2.00;;;;;;;;;;4957117;28;20232;-80
2023/03/01 09:33:27;;;;;;;3.53;2.83;;;;;;;;;;4935562;28;20687;-81
2023/03/01 09:35:59;;;;;;;4.23;3.60;;;;;;;;;;4955832;28;20730;-79
2023/03/01 09:38:25;;;;;;;5.30;3.23;;;;;;;;;;4965479;28;20305;-81
2023/03/01 09:40:51;;;;;;;2.80;2.60;;;;;;;;;;4941143;28;20564;-81
2023/03/01 09:43:46;;;;;;;4.50;3.03;;;;;;;;;;4919046;28;20575;-80
2023/03/01 09:46:18;;;;;;;4.17;3.20;;;;;;;;;;4965622;28;20225;-81
2023/03/01 09:48:53;;;;;;;2.97;2.77;;;;;;;;;;4950896;28;20257;-80
2023/03/01 09:51:34;;;;;;;3.83;3.40;;;;;;;;;;4950378;28;20265;-79
2023/03/01 09:54:04;;;;;;;4.63;3.70;;;;;;;;;;4933886;28;20304;-81
2023/03/01 09:56:36;;;;;;;5.07;4.40;;;;;;;;;;4917865;28;20225;-79
2023/03/01 09:59:17;;;;;;;5.53;4.40;;;;;;;;;;4936291;28;20236;-79
2023/03/01 10:02:05;;;;;;;4.83;4.40;;;;;;;;;;4966603;28;20316;-80
2023/03/01 10:04:49;;;;;;;10.60;5.47;;;;;;;;;;4926028;28;20233;-82
2023/03/01 10:08:00;;;;;;;8.33;7.43;;;;;;;;;;4952196;28;20218;-80
2023/03/01 10:10:44;;;;;;;11.57;8.87;;;;;;;;;;4907324;28;20230;-80
2023/03/01 10:13:29;;;;;;;18.57;10.93;;;;;;;;;;4949799;28;20414;-80
2023/03/01 10:16:14;;;;;;;13.37;9.93;;;;;;;;;;4948830;28;20229;-79
2023/03/01 10:18:40;;;;;;;8.80;7.40;;;;;;;;;;4971542;28;21788;-81
2023/03/01 10:21:13;;;;;;;8.23;6.30;;;;;;;;;;4927756;28;20222;-79
2023/03/01 10:23:39;;;;;;;8.83;5.67;;;;;;;;;;4938268;28;20276;-80
2023/03/01 10:26:26;;;;;;;8.67;6.53;;;;;;;;;;4953956;28;20249;-79
2023/03/01 10:29:07;;;;;;;8.50;6.07;;;;;;;;;;4971507;28;20241;-81
2023/03/01 10:31:50;;;;;;;11.53;6.67;;;;;;;;;;4954445;28;20217;-80
2023/03/01 10:34:22;;;;;;;8.53;7.10;;;;;;;;;;4966275;28;20595;-81
2023/03/01 10:36:54;;;;;;;9.10;8.00;;;;;;;;;;4953168;28;20245;-80
2023/03/01 10:39:21;;;;;;;8.73;7.83;;;;;;;;;;4937508;28;20226;-81
2023/03/01 10:42:03;;;;;;;8.37;7.53;;;;;;;;;;4937714;28;20566;-81
2023/03/01 10:44:37;;;;;;;9.20;8.27;;;;;;;;;;4951968;28;20300;-81
2023/03/01 10:47:04;;;;;;;8.50;7.70;;;;;;;;;;4938862;28;20220;-81
2023/03/01 10:49:30;;;;;;;8.43;7.50;;;;;;;;;;4956762;28;20221;-81
2023/03/01 10:51:56;;;;;;;9.47;7.37;;;;;;;;;;4939299;28;20257;-82
2023/03/01 10:54:27;;;;;;;9.50;8.07;;;;;;;;;;4961480;28;20218;-82
2023/03/01 10:56:57;;;;;;;10.27;7.83;;;;;;;;;;4960403;28;20225;-81
2023/03/01 10:59:27;;;;;;;11.93;8.23;;;;;;;;;;4961625;28;20261;-81
2023/03/01 11:02:09;;;;;;;12.37;8.80;;;;;;;;;;4957607;28;20234;-82
2023/03/01 11:04:35;;;;;;;12.57;8.77;;;;;;;;;;4972741;28;20729;-82
2023/03/01 11:07:01;;;;;;;9.87;8.20;;;;;;;;;;4926286;28;20331;-82
2023/03/01 11:09:37;;;;;;;8.73;7.63;;;;;;;;;;4940660;28;20226;-80
2023/03/01 11:12:03;;;;;;;10.87;8.43;;;;;;;;;;4939946;28;20316;-81
2023/03/01 11:14:51;;;;;;;10.20;8.27;;;;;;;;;;4954854;28;20228;-82
2023/03/01 11:17:32;;;;;;;10.97;8.40;;;;;;;;;;4956933;28;20242;-81
2023/03/01 11:20:12;;;;;;;10.23;7.73;;;;;;;;;;4956133;28;20336;-81
2023/03/01 11:22:37;;;;;;;9.83;7.80;;;;;;;;;;4959106;28;20238;-82
2023/03/01 11:25:03;;;;;;;11.10;7.73;;;;;;;;;;4941681;28;20238;-81
2023/03/01 11:27:32;;;;;;;7.97;6.97;;;;;;;;;;4964698;28;20222;-82
2023/03/01 11:30:00;;;;;;;7.37;6.67;;;;;;;;;;4946861;28;20249;-81
2023/03/01 11:32:30;;;;;;;8.90;7.63;;;;;;;;;;4946050;28;21866;-81
2023/03/01 11:35:33;;;;;;;8.73;7.23;;;;;;;;;;4964913;28;20232;-81
2023/03/01 11:38:01;;;;;;;11.03;7.70;;;;;;;;;;4835550;29;20240;-82
2023/03/01 11:40:34;;;;;;;7.43;6.63;;;;;;;;;;4964303;28;20226;-81
2023/03/01 11:43:37;;;;;;;7.00;6.30;;;;;;;;;;4947038;28;20218;-81
2023/03/01 11:46:10;;;;;;;7.43;6.63;;;;;;;;;;4962936;28;20226;-81
2023/03/01 11:48:39;;;;;;;7.33;6.57;;;;;;;;;;4982957;28;20237;-82
2023/03/01 11:51:40;;;;;;;9.73;6.90;;;;;;;;;;4976961;28;20214;-82
2023/03/01 11:54:24;;;;;;;6.97;6.27;;;;;;;;;;4938724;28;20229;-83
2023/03/01 11:57:08;;;;;;;6.07;5.57;;;;;;;;;;4978754;28;20232;-81
2023/03/01 11:59:33;;;;;;;6.83;5.93;;;;;;;;;;4978157;28;20253;-81
2023/03/01 12:02:36;;;;;;;6.97;5.27;;;;;;;;;;4964560;28;20226;-81
2023/03/01 12:05:38;;;;;;;6.17;5.20;;;;;;;;;;4972441;28;20230;-82
2023/03/01 12:08:12;;;;;;;5.30;4.80;;;;;;;;;;4951097;28;20253;-81
2023/03/01 12:10:47;;;;;;;5.97;5.37;;;;;;;;;;4953713;28;20225;-81
2023/03/01 12:13:28;;;;;;;8.43;5.40;;;;;;;;;;4960763;28;21275;-80
2023/03/01 12:15:56;;;;;;;6.97;5.20;;;;;;;;;;4976414;28;20224;-80
2023/03/01 12:18:52;;;;;;;6.63;4.67;;;;;;;;;;4977107;28;20238;-83
2023/03/01 12:21:52;;;;;;;6.47;5.17;;;;;;;;;;4977454;28;20225;-82
2023/03/01 12:24:22;;;;;;;6.13;5.17;;;;;;;;;;4940548;28;20293;-81
2023/03/01 12:26:56;;;;;;;6.60;5.57;;;;;;;;;;4960070;28;20230;-82
2023/03/01 12:29:42;;;;;;;5.73;5.10;;;;;;;;;;4977771;28;20241;-82
2023/03/01 12:32:28;;;;;;;5.73;5.10;;;;;;;;;;4959839;28;20703;-82
2023/03/01 12:35:06;;;;;;;6.20;5.60;;;;;;;;;;4974036;28;20409;-81
2023/03/01 12:37:44;;;;;;;6.47;5.30;;;;;;;;;;4945399;28;20229;-81
2023/03/01 12:40:34;;;;;;;6.10;5.30;;;;;;;;;;4962700;28;20702;-82
2023/03/01 12:43:22;;;;;;;5.47;4.97;;;;;;;;;;4964396;28;20233;-82
2023/03/01 12:45:58;;;;;;;5.83;5.17;;;;;;;;;;4969611;28;20230;-81
2023/03/01 12:48:44;;;;;;;6.83;5.07;;;;;;;;;;4954977;28;21377;-81
2023/03/01 12:51:19;;;;;;;6.07;5.30;;;;;;;;;;4960912;28;20222;-89
2023/03/01 12:53:48;;;;;;;5.83;5.07;;;;;;;;;;4945504;28;20276;-88
2023/03/01 12:56:37;;;;;;;5.50;5.00;;;;;;;;;;4919357;28;20642;-88
2023/03/01 12:59:36;;;;;;;5.40;4.90;;;;;;;;;;4952971;28;20226;-90
2023/03/01 13:02:17;;;;;;;7.23;5.70;;;;;;;;;;4917386;28;20228;-91
2023/03/01 13:05:18;;;;;;;5.60;5.00;;;;;;;;;;4955538;28;20234;-89
2023/03/01 13:08:10;;;;;;;7.40;5.00;;;;;;;;;;4958211;28;20230;-90
2023/03/01 13:10:52;;;;;;;5.63;4.57;;;;;;;;;;4972910;28;20222;-90
2023/03/01 13:13:24;;;;;;;5.00;4.47;;;;;;;;;;4959803;28;20308;-90
2023/03/01 13:15:53;;;;;;;5.03;4.50;;;;;;;;;;4958643;28;20577;-89
2023/03/01 13:18:19;;;;;;;4.97;4.47;;;;;;;;;;4947936;28;20216;-88
2023/03/01 13:20:48;;;;;;;5.40;4.70;;;;;;;;;;4961890;28;20276;-87
2023/03/01 13:23:19;;;;;;;5.07;4.57;;;;;;;;;;4941606;28;20313;-84
2023/03/01 13:25:59;;;;;;;7.63;4.90;;;;;;;;;;4956070;28;20842;-83
2023/03/01 13:28:48;;;;;;;4.80;4.40;;;;;;;;;;4953591;28;20332;-82
2023/03/01 13:31:19;;;;;;;4.70;4.30;;;;;;;;;;4976946;28;20218;-82
2023/03/01 13:33:47;;;;;;;5.23;4.70;;;;;;;;;;4976308;28;20249;-82
2023/03/01 13:36:28;;;;;;;5.33;4.83;;;;;;;;;;4956562;28;20232;-80
2023/03/01 13:38:57;;;;;;;6.63;4.50;;;;;;;;;;4972527;28;20225;-82
2023/03/01 13:41:40;;;;;;;5.93;4.77;;;;;;;;;;4960174;28;20320;-81
2023/03/01 13:44:17;;;;;;;5.07;4.20;;;;;;;;;;4958836;28;20230;-81
2023/03/01 13:46:45;;;;;;;5.53;4.10;;;;;;;;;;4965602;28;20227;-82
2023/03/01 13:49:13;;;;;;;4.83;4.23;;;;;;;;;;4959388;28;20236;-81
2023/03/01 13:51:39;;;;;;;4.67;4.00;;;;;;;;;;4954026;28;20263;-84
2023/03/01 13:54:09;;;;;;;5.70;4.43;;;;;;;;;;4936354;28;20224;-82
2023/03/01 13:56:37;;;;;;;6.17;5.07;;;;;;;;;;4952703;28;20245;-82
2023/03/01 13:59:16;;;;;;;3.93;3.63;;;;;;;;;;4941142;28;20238;-82
2023/03/01 14:01:44;;;;;;;4.60;4.20;;;;;;;;;;4939163;28;20245;-82
2023/03/01 14:04:25;;;;;;;5.57;4.20;;;;;;;;;;4956396;28;20253;-84
2023/03/01 14:06:51;;;;;;;4.10;3.60;;;;;;;;;;4955378;28;20730;-82
2023/03/01 14:09:24;;;;;;;4.03;3.73;;;;;;;;;;4921756;28;20214;-83
2023/03/01 14:12:04;;;;;;;5.67;4.03;;;;;;;;;;4953104;28;20247;-83
2023/03/01 14:14:56;;;;;;;4.77;4.27;;;;;;;;;;4926974;28;21066;-80
2023/03/01 14:17:22;;;;;;;5.13;4.63;;;;;;;;;;4955205;28;20254;-83
2023/03/01 14:19:48;;;;;;;5.13;4.27;;;;;;;;;;4954822;28;20253;-82
2023/03/01 14:22:33;;;;;;;4.33;3.93;;;;;;;;;;4958870;28;20257;-81
2023/03/01 14:25:00;;;;;;;7.13;4.43;;;;;;;;;;4973272;28;20249;-82
2023/03/01 14:27:36;;;;;;;4.40;4.00;;;;;;;;;;4927941;28;20240;-83
2023/03/01 14:30:04;;;;;;;4.20;3.80;;;;;;;;;;4946107;28;20225;-82
2023/03/01 14:32:31;;;;;;;4.30;3.90;;;;;;;;;;4948450;28;20559;-81
2023/03/01 14:34:57;;;;;;;4.33;3.93;;;;;;;;;;4981371;28;20214;-82
2023/03/01 14:37:34;;;;;;;3.80;3.50;;;;;;;;;;4945647;28;20707;-82
2023/03/01 14:40:05;;;;;;;4.67;3.83;;;;;;;;;;4974247;28;20214;-83
2023/03/01 14:42:34;;;;;;;3.93;3.57;;;;;;;;;;4948107;28;20321;-83
2023/03/01 14:45:00;;;;;;;5.43;3.90;;;;;;;;;;4948394;28;20313;-84
2023/03/01 14:47:29;;;;;;;4.60;4.00;;;;;;;;;;4953195;28;20221;-83
2023/03/01 14:50:06;;;;;;;4.60;3.80;;;;;;;;;;4980483;28;20226;-81
2023/03/01 14:52:39;;;;;;;4.13;3.83;;;;;;;;;;4942266;28;20492;-82
2023/03/01 14:55:15;;;;;;;4.33;3.93;;;;;;;;;;4981060;28;20226;-85
2023/03/01 14:57:43;;;;;;;5.47;4.40;;;;;;;;;;4926221;28;20249;-83
2023/03/01 15:00:17;;;;;;;4.10;3.80;;;;;;;;;;4957884;28;20238;-83
2023/03/01 15:02:44;;;;;;;4.90;4.40;;;;;;;;;;4944285;28;20314;-84
2023/03/01 15:05:12;;;;;;;4.50;4.10;;;;;;;;;;4928751;28;20230;-84
2023/03/01 15:07:39;;;;;;;4.73;4.10;;;;;;;;;;4944567;28;20261;-82
2023/03/01 15:10:05;;;;;;;4.03;3.70;;;;;;;;;;4979018;28;20214;-83